sensor_id;sensor_type;location;lat;lon;timestamp;P1;durP1;ratioP1;P2;durP2;ratioP2
63534;SDS011;55128;50.230;18.944;2023-10-09T00:01:27;27.60;;;16.90;;
63534;SDS011;55128;50.230;18.944;2023-10-09T00:06:28;15.55;;;8.43;;
63534;SDS011;55128;50.230;18.944;2023-10-09T00:11:36;11.73;;;7.72;;
63534;SDS011;55128;50.230;18.944;2023-10-09T00:16:41;13.70;;;7.55;;
63534;SDS011;55128;50.230;18.944;2023-10-09T00:21:49;12.88;;;8.60;;
63534;SDS011;55128;50.230;18.944;2023-10-09T00:26:50;26.23;;;14.57;;
63534;SDS011;55128;50.230;18.944;2023-10-09T00:31:52;25.92;;;13.65;;
63534;SDS011;55128;50.230;18.944;2023-10-09T00:37:03;17.92;;;11.65;;
63534;SDS011;55128;50.230;18.944;2023-10-09T00:42:04;20.50;;;11.60;;
63534;SDS011;55128;50.230;18.944;2023-10-09T00:47:07;17.15;;;9.82;;
63534;SDS011;55128;50.230;18.944;2023-10-09T00:52:21;24.65;;;14.52;;
63534;SDS011;55128;50.230;18.944;2023-10-09T00:57:31;19.85;;;12.00;;
63534;SDS011;55128;50.230;18.944;2023-10-09T01:02:40;17.55;;;10.15;;
63534;SDS011;55128;50.230;18.944;2023-10-09T01:07:43;18.88;;;9.63;;
63534;SDS011;55128;50.230;18.944;2023-10-09T01:12:46;16.95;;;10.02;;
63534;SDS011;55128;50.230;18.944;2023-10-09T01:17:48;19.25;;;10.77;;
63534;SDS011;55128;50.230;18.944;2023-10-09T01:22:48;30.25;;;18.55;;
63534;SDS011;55128;50.230;18.944;2023-10-09T01:27:50;33.80;;;17.80;;
63534;SDS011;55128;50.230;18.944;2023-10-09T01:32:52;19.83;;;12.20;;
63534;SDS011;55128;50.230;18.944;2023-10-09T01:37:53;18.58;;;11.82;;
63534;SDS011;55128;50.230;18.944;2023-10-09T01:42:56;21.33;;;12.05;;
63534;SDS011;55128;50.230;18.944;2023-10-09T01:47:56;18.30;;;11.30;;
63534;SDS011;55128;50.230;18.944;2023-10-09T01:52:57;28.58;;;20.30;;
63534;SDS011;55128;50.230;18.944;2023-10-09T01:58:02;21.00;;;12.98;;
63534;SDS011;55128;50.230;18.944;2023-10-09T02:03:31;26.38;;;17.65;;
63534;SDS011;55128;50.230;18.944;2023-10-09T02:08:36;19.30;;;12.65;;
63534;SDS011;55128;50.230;18.944;2023-10-09T02:13:37;21.75;;;12.90;;
63534;SDS011;55128;50.230;18.944;2023-10-09T02:23:56;20.75;;;11.60;;
63534;SDS011;55128;50.230;18.944;2023-10-09T02:28:57;23.38;;;12.93;;
63534;SDS011;55128;50.230;18.944;2023-10-09T02:34:04;20.30;;;12.63;;
63534;SDS011;55128;50.230;18.944;2023-10-09T02:39:05;18.83;;;11.77;;
63534;SDS011;55128;50.230;18.944;2023-10-09T02:44:06;21.98;;;13.18;;
63534;SDS011;55128;50.230;18.944;2023-10-09T02:49:11;22.38;;;13.32;;
63534;SDS011;55128;50.230;18.944;2023-10-09T02:59:26;26.20;;;13.65;;
63534;SDS011;55128;50.230;18.944;2023-10-09T03:04:27;23.75;;;15.95;;
63534;SDS011;55128;50.230;18.944;2023-10-09T03:09:30;25.65;;;13.95;;
63534;SDS011;55128;50.230;18.944;2023-10-09T03:14:32;27.05;;;15.20;;
63534;SDS011;55128;50.230;18.944;2023-10-09T03:19:38;27.58;;;18.77;;
63534;SDS011;55128;50.230;18.944;2023-10-09T03:24:39;23.55;;;15.80;;
63534;SDS011;55128;50.230;18.944;2023-10-09T03:29:44;22.60;;;13.75;;
63534;SDS011;55128;50.230;18.944;2023-10-09T03:34:49;23.92;;;13.98;;
63534;SDS011;55128;50.230;18.944;2023-10-09T03:39:51;47.38;;;39.05;;
63534;SDS011;55128;50.230;18.944;2023-10-09T03:44:54;24.08;;;14.02;;
63534;SDS011;55128;50.230;18.944;2023-10-09T03:49:57;22.30;;;13.45;;
63534;SDS011;55128;50.230;18.944;2023-10-09T03:55:02;22.90;;;14.45;;
63534;SDS011;55128;50.230;18.944;2023-10-09T04:00:11;29.33;;;17.98;;
63534;SDS011;55128;50.230;18.944;2023-10-09T04:05:16;47.10;;;29.15;;
63534;SDS011;55128;50.230;18.944;2023-10-09T04:10:17;35.55;;;23.58;;
63534;SDS011;55128;50.230;18.944;2023-10-09T04:15:43;21.25;;;13.38;;
63534;SDS011;55128;50.230;18.944;2023-10-09T04:20:43;24.65;;;15.20;;
63534;SDS011;55128;50.230;18.944;2023-10-09T04:26:16;29.30;;;20.77;;
63534;SDS011;55128;50.230;18.944;2023-10-09T04:31:16;30.08;;;18.13;;
63534;SDS011;55128;50.230;18.944;2023-10-09T04:36:19;28.58;;;17.15;;
63534;SDS011;55128;50.230;18.944;2023-10-09T04:41:22;23.90;;;14.82;;
63534;SDS011;55128;50.230;18.944;2023-10-09T04:46:33;25.67;;;16.02;;
63534;SDS011;55128;50.230;18.944;2023-10-09T04:51:43;26.40;;;16.08;;
63534;SDS011;55128;50.230;18.944;2023-10-09T04:56:59;29.55;;;17.35;;
63534;SDS011;55128;50.230;18.944;2023-10-09T05:02:00;30.70;;;22.35;;
63534;SDS011;55128;50.230;18.944;2023-10-09T05:07:04;21.17;;;13.38;;
63534;SDS011;55128;50.230;18.944;2023-10-09T05:12:23;26.13;;;14.63;;
63534;SDS011;55128;50.230;18.944;2023-10-09T05:17:28;24.42;;;17.73;;
63534;SDS011;55128;50.230;18.944;2023-10-09T05:22:29;23.53;;;14.33;;
63534;SDS011;55128;50.230;18.944;2023-10-09T05:27:29;18.87;;;10.63;;
63534;SDS011;55128;50.230;18.944;2023-10-09T05:32:45;14.35;;;8.25;;
63534;SDS011;55128;50.230;18.944;2023-10-09T05:37:48;12.25;;;7.53;;
63534;SDS011;55128;50.230;18.944;2023-10-09T05:42:59;12.65;;;7.60;;
63534;SDS011;55128;50.230;18.944;2023-10-09T05:48:01;11.77;;;6.95;;
63534;SDS011;55128;50.230;18.944;2023-10-09T05:53:19;12.75;;;6.53;;
63534;SDS011;55128;50.230;18.944;2023-10-09T05:58:38;12.35;;;6.45;;
63534;SDS011;55128;50.230;18.944;2023-10-09T06:03:57;14.02;;;7.63;;
63534;SDS011;55128;50.230;18.944;2023-10-09T06:09:15;15.65;;;8.77;;
63534;SDS011;55128;50.230;18.944;2023-10-09T06:14:16;13.50;;;8.95;;
63534;SDS011;55128;50.230;18.944;2023-10-09T06:19:45;17.10;;;9.05;;
63534;SDS011;55128;50.230;18.944;2023-10-09T06:24:48;13.23;;;9.07;;
63534;SDS011;55128;50.230;18.944;2023-10-09T06:29:52;15.30;;;8.20;;
63534;SDS011;55128;50.230;18.944;2023-10-09T06:35:12;12.48;;;7.35;;
63534;SDS011;55128;50.230;18.944;2023-10-09T06:40:16;12.45;;;8.60;;
63534;SDS011;55128;50.230;18.944;2023-10-09T06:45:37;12.00;;;7.35;;
63534;SDS011;55128;50.230;18.944;2023-10-09T06:50:44;11.70;;;5.63;;
63534;SDS011;55128;50.230;18.944;2023-10-09T06:55:58;7.80;;;4.38;;
63534;SDS011;55128;50.230;18.944;2023-10-09T07:01:05;8.18;;;4.07;;
63534;SDS011;55128;50.230;18.944;2023-10-09T07:06:24;7.75;;;4.22;;
63534;SDS011;55128;50.230;18.944;2023-10-09T07:11:46;8.35;;;4.45;;
63534;SDS011;55128;50.230;18.944;2023-10-09T07:16:48;12.45;;;5.60;;
63534;SDS011;55128;50.230;18.944;2023-10-09T07:22:06;9.05;;;4.82;;
63534;SDS011;55128;50.230;18.944;2023-10-09T07:27:23;7.17;;;3.97;;
63534;SDS011;55128;50.230;18.944;2023-10-09T07:32:43;10.75;;;5.60;;
63534;SDS011;55128;50.230;18.944;2023-10-09T07:37:47;9.75;;;5.60;;
63534;SDS011;55128;50.230;18.944;2023-10-09T07:42:50;9.10;;;4.80;;
63534;SDS011;55128;50.230;18.944;2023-10-09T07:47:52;10.32;;;5.68;;
63534;SDS011;55128;50.230;18.944;2023-10-09T07:53:05;8.82;;;4.50;;
63534;SDS011;55128;50.230;18.944;2023-10-09T07:58:17;9.55;;;4.47;;
63534;SDS011;55128;50.230;18.944;2023-10-09T08:03:24;6.95;;;4.03;;
63534;SDS011;55128;50.230;18.944;2023-10-09T08:08:25;7.25;;;3.72;;
63534;SDS011;55128;50.230;18.944;2023-10-09T08:13:28;7.80;;;4.30;;
63534;SDS011;55128;50.230;18.944;2023-10-09T08:18:47;8.50;;;4.43;;
63534;SDS011;55128;50.230;18.944;2023-10-09T08:23:51;9.70;;;5.68;;
63534;SDS011;55128;50.230;18.944;2023-10-09T08:28:52;10.45;;;5.70;;
63534;SDS011;55128;50.230;18.944;2023-10-09T08:33:54;10.93;;;5.93;;
63534;SDS011;55128;50.230;18.944;2023-10-09T08:38:57;10.70;;;6.43;;
63534;SDS011;55128;50.230;18.944;2023-10-09T08:44:14;7.45;;;4.43;;
63534;SDS011;55128;50.230;18.944;2023-10-09T08:49:23;6.88;;;4.38;;
63534;SDS011;55128;50.230;18.944;2023-10-09T08:54:25;6.75;;;4.03;;
63534;SDS011;55128;50.230;18.944;2023-10-09T08:59:26;7.68;;;4.00;;
63534;SDS011;55128;50.230;18.944;2023-10-09T09:04:40;7.30;;;4.88;;
63534;SDS011;55128;50.230;18.944;2023-10-09T09:09:49;9.10;;;5.10;;
63534;SDS011;55128;50.230;18.944;2023-10-09T09:14:57;8.00;;;5.25;;
63534;SDS011;55128;50.230;18.944;2023-10-09T09:19:57;7.88;;;5.57;;
63534;SDS011;55128;50.230;18.944;2023-10-09T09:24:58;6.40;;;4.32;;
63534;SDS011;55128;50.230;18.944;2023-10-09T09:30:13;7.82;;;4.72;;
63534;SDS011;55128;50.230;18.944;2023-10-09T09:35:24;9.48;;;5.90;;
63534;SDS011;55128;50.230;18.944;2023-10-09T09:40:27;7.13;;;5.37;;
63534;SDS011;55128;50.230;18.944;2023-10-09T09:45:31;9.43;;;6.03;;
63534;SDS011;55128;50.230;18.944;2023-10-09T09:50:33;8.45;;;5.85;;
63534;SDS011;55128;50.230;18.944;2023-10-09T09:55:37;9.18;;;5.95;;
63534;SDS011;55128;50.230;18.944;2023-10-09T10:00:42;11.00;;;6.00;;
63534;SDS011;55128;50.230;18.944;2023-10-09T10:05:42;7.40;;;4.68;;
63534;SDS011;55128;50.230;18.944;2023-10-09T10:10:46;7.83;;;5.97;;
63534;SDS011;55128;50.230;18.944;2023-10-09T10:21:09;6.72;;;4.20;;
63534;SDS011;55128;50.230;18.944;2023-10-09T10:26:17;8.65;;;6.43;;
63534;SDS011;55128;50.230;18.944;2023-10-09T10:31:50;7.32;;;5.38;;
63534;SDS011;55128;50.230;18.944;2023-10-09T10:36:52;7.47;;;4.00;;
63534;SDS011;55128;50.230;18.944;2023-10-09T10:41:58;5.20;;;4.15;;
63534;SDS011;55128;50.230;18.944;2023-10-09T10:47:05;4.63;;;3.30;;
63534;SDS011;55128;50.230;18.944;2023-10-09T10:52:22;4.90;;;3.20;;
63534;SDS011;55128;50.230;18.944;2023-10-09T10:57:35;4.72;;;2.88;;
63534;SDS011;55128;50.230;18.944;2023-10-09T11:02:55;4.93;;;3.17;;
63534;SDS011;55128;50.230;18.944;2023-10-09T11:08:13;4.38;;;2.70;;
63534;SDS011;55128;50.230;18.944;2023-10-09T11:13:20;4.95;;;3.15;;
63534;SDS011;55128;50.230;18.944;2023-10-09T11:18:39;4.93;;;2.75;;
63534;SDS011;55128;50.230;18.944;2023-10-09T11:23:45;6.60;;;2.88;;
63534;SDS011;55128;50.230;18.944;2023-10-09T11:34:44;5.03;;;3.28;;
63534;SDS011;55128;50.230;18.944;2023-10-09T11:39:51;5.18;;;3.63;;
63534;SDS011;55128;50.230;18.944;2023-10-09T11:44:52;6.68;;;4.05;;
63534;SDS011;55128;50.230;18.944;2023-10-09T11:49:55;6.63;;;4.15;;
63534;SDS011;55128;50.230;18.944;2023-10-09T11:55:11;8.68;;;4.13;;
63534;SDS011;55128;50.230;18.944;2023-10-09T12:00:15;6.00;;;4.55;;
63534;SDS011;55128;50.230;18.944;2023-10-09T12:05:29;9.65;;;4.47;;
63534;SDS011;55128;50.230;18.944;2023-10-09T12:10:29;7.35;;;4.38;;
63534;SDS011;55128;50.230;18.944;2023-10-09T12:15:29;7.53;;;5.00;;
63534;SDS011;55128;50.230;18.944;2023-10-09T12:20:37;9.05;;;6.45;;
63534;SDS011;55128;50.230;18.944;2023-10-09T12:25:37;8.15;;;5.97;;
63534;SDS011;55128;50.230;18.944;2023-10-09T12:30:38;8.95;;;5.60;;
63534;SDS011;55128;50.230;18.944;2023-10-09T12:35:42;7.73;;;5.43;;
63534;SDS011;55128;50.230;18.944;2023-10-09T12:40:45;9.53;;;6.50;;
63534;SDS011;55128;50.230;18.944;2023-10-09T12:45:52;8.35;;;5.72;;
63534;SDS011;55128;50.230;18.944;2023-10-09T12:55:59;9.43;;;5.70;;
63534;SDS011;55128;50.230;18.944;2023-10-09T13:00:59;7.88;;;5.47;;
63534;SDS011;55128;50.230;18.944;2023-10-09T13:06:09;7.70;;;6.03;;
63534;SDS011;55128;50.230;18.944;2023-10-09T13:11:12;8.48;;;5.35;;
63534;SDS011;55128;50.230;18.944;2023-10-09T13:16:20;9.82;;;6.43;;
63534;SDS011;55128;50.230;18.944;2023-10-09T13:21:25;7.28;;;5.47;;
63534;SDS011;55128;50.230;18.944;2023-10-09T13:26:26;7.43;;;6.60;;
63534;SDS011;55128;50.230;18.944;2023-10-09T13:31:30;8.05;;;6.65;;
63534;SDS011;55128;50.230;18.944;2023-10-09T13:36:34;11.30;;;8.18;;
63534;SDS011;55128;50.230;18.944;2023-10-09T13:41:34;13.70;;;12.30;;
63534;SDS011;55128;50.230;18.944;2023-10-09T13:46:35;10.90;;;8.43;;
63534;SDS011;55128;50.230;18.944;2023-10-09T13:51:41;14.02;;;9.35;;
63534;SDS011;55128;50.230;18.944;2023-10-09T13:56:44;13.88;;;9.85;;
63534;SDS011;55128;50.230;18.944;2023-10-09T14:01:44;14.90;;;9.90;;
63534;SDS011;55128;50.230;18.944;2023-10-09T14:06:47;15.48;;;10.18;;
63534;SDS011;55128;50.230;18.944;2023-10-09T14:11:48;13.50;;;9.90;;
63534;SDS011;55128;50.230;18.944;2023-10-09T14:16:52;16.33;;;9.82;;
63534;SDS011;55128;50.230;18.944;2023-10-09T14:21:57;18.65;;;12.05;;
63534;SDS011;55128;50.230;18.944;2023-10-09T14:26:57;16.87;;;12.87;;
63534;SDS011;55128;50.230;18.944;2023-10-09T14:31:58;13.40;;;11.20;;
63534;SDS011;55128;50.230;18.944;2023-10-09T14:37:01;18.65;;;13.02;;
63534;SDS011;55128;50.230;18.944;2023-10-09T14:42:01;13.35;;;11.75;;
63534;SDS011;55128;50.230;18.944;2023-10-09T14:47:02;15.80;;;12.20;;
63534;SDS011;55128;50.230;18.944;2023-10-09T14:52:05;17.38;;;12.85;;
63534;SDS011;55128;50.230;18.944;2023-10-09T14:57:08;16.85;;;12.68;;
63534;SDS011;55128;50.230;18.944;2023-10-09T15:02:11;14.32;;;12.80;;
63534;SDS011;55128;50.230;18.944;2023-10-09T15:07:12;20.30;;;16.42;;
63534;SDS011;55128;50.230;18.944;2023-10-09T15:12:15;22.48;;;17.88;;
63534;SDS011;55128;50.230;18.944;2023-10-09T15:17:15;25.90;;;19.33;;
63534;SDS011;55128;50.230;18.944;2023-10-09T15:22:16;37.58;;;32.08;;
63534;SDS011;55128;50.230;18.944;2023-10-09T15:27:16;34.10;;;27.45;;
63534;SDS011;55128;50.230;18.944;2023-10-09T15:32:16;38.00;;;30.33;;
63534;SDS011;55128;50.230;18.944;2023-10-09T15:37:22;30.02;;;23.55;;
63534;SDS011;55128;50.230;18.944;2023-10-09T15:42:22;32.85;;;25.00;;
63534;SDS011;55128;50.230;18.944;2023-10-09T15:47:23;35.78;;;26.73;;
63534;SDS011;55128;50.230;18.944;2023-10-09T15:52:23;31.10;;;23.47;;
63534;SDS011;55128;50.230;18.944;2023-10-09T15:57:26;34.78;;;23.45;;
63534;SDS011;55128;50.230;18.944;2023-10-09T16:02:27;28.75;;;21.35;;
63534;SDS011;55128;50.230;18.944;2023-10-09T16:07:27;32.77;;;24.43;;
63534;SDS011;55128;50.230;18.944;2023-10-09T16:12:28;38.80;;;23.90;;
63534;SDS011;55128;50.230;18.944;2023-10-09T16:17:31;28.85;;;20.85;;
63534;SDS011;55128;50.230;18.944;2023-10-09T16:22:34;29.10;;;21.70;;
63534;SDS011;55128;50.230;18.944;2023-10-09T16:27:35;31.63;;;22.02;;
63534;SDS011;55128;50.230;18.944;2023-10-09T16:32:36;32.40;;;21.85;;
63534;SDS011;55128;50.230;18.944;2023-10-09T16:37:38;34.35;;;25.45;;
63534;SDS011;55128;50.230;18.944;2023-10-09T16:42:41;37.78;;;27.63;;
63534;SDS011;55128;50.230;18.944;2023-10-09T16:47:45;37.30;;;28.33;;
63534;SDS011;55128;50.230;18.944;2023-10-09T16:52:51;49.67;;;36.55;;
63534;SDS011;55128;50.230;18.944;2023-10-09T16:57:52;49.03;;;35.40;;
63534;SDS011;55128;50.230;18.944;2023-10-09T17:02:56;53.17;;;36.67;;
63534;SDS011;55128;50.230;18.944;2023-10-09T17:07:56;77.25;;;50.00;;
63534;SDS011;55128;50.230;18.944;2023-10-09T17:12:58;42.72;;;31.23;;
63534;SDS011;55128;50.230;18.944;2023-10-09T17:17:58;42.63;;;30.90;;
63534;SDS011;55128;50.230;18.944;2023-10-09T17:23:00;86.82;;;74.15;;
63534;SDS011;55128;50.230;18.944;2023-10-09T17:28:00;59.78;;;49.13;;
63534;SDS011;55128;50.230;18.944;2023-10-09T17:33:01;45.33;;;31.75;;
63534;SDS011;55128;50.230;18.944;2023-10-09T17:38:01;42.40;;;27.48;;
63534;SDS011;55128;50.230;18.944;2023-10-09T17:43:03;41.20;;;27.38;;
63534;SDS011;55128;50.230;18.944;2023-10-09T17:48:05;46.83;;;29.95;;
63534;SDS011;55128;50.230;18.944;2023-10-09T17:53:08;51.97;;;32.22;;
63534;SDS011;55128;50.230;18.944;2023-10-09T17:58:08;48.95;;;33.97;;
63534;SDS011;55128;50.230;18.944;2023-10-09T18:03:11;45.20;;;29.13;;
63534;SDS011;55128;50.230;18.944;2023-10-09T18:08:15;40.10;;;27.98;;
63534;SDS011;55128;50.230;18.944;2023-10-09T18:13:15;41.70;;;29.27;;
63534;SDS011;55128;50.230;18.944;2023-10-09T18:18:19;49.80;;;32.27;;
63534;SDS011;55128;50.230;18.944;2023-10-09T18:23:19;50.35;;;31.48;;
63534;SDS011;55128;50.230;18.944;2023-10-09T18:28:20;54.17;;;35.70;;
63534;SDS011;55128;50.230;18.944;2023-10-09T18:33:20;52.58;;;33.40;;
63534;SDS011;55128;50.230;18.944;2023-10-09T18:38:23;62.95;;;36.25;;
63534;SDS011;55128;50.230;18.944;2023-10-09T18:43:23;60.67;;;33.50;;
63534;SDS011;55128;50.230;18.944;2023-10-09T18:48:23;63.20;;;35.93;;
63534;SDS011;55128;50.230;18.944;2023-10-09T18:53:28;367.23;;;331.17;;
63534;SDS011;55128;50.230;18.944;2023-10-09T18:58:31;122.13;;;48.30;;
63534;SDS011;55128;50.230;18.944;2023-10-09T19:03:33;130.75;;;55.45;;
63534;SDS011;55128;50.230;18.944;2023-10-09T19:08:34;84.30;;;41.88;;
63534;SDS011;55128;50.230;18.944;2023-10-09T19:13:35;70.47;;;38.50;;
63534;SDS011;55128;50.230;18.944;2023-10-09T19:18:36;117.97;;;50.17;;
63534;SDS011;55128;50.230;18.944;2023-10-09T19:23:38;69.00;;;38.00;;
63534;SDS011;55128;50.230;18.944;2023-10-09T19:28:41;64.18;;;36.58;;
63534;SDS011;55128;50.230;18.944;2023-10-09T19:33:43;66.25;;;40.33;;
63534;SDS011;55128;50.230;18.944;2023-10-09T19:38:44;61.58;;;34.00;;
63534;SDS011;55128;50.230;18.944;2023-10-09T19:43:51;62.25;;;32.17;;
63534;SDS011;55128;50.230;18.944;2023-10-09T19:48:53;79.57;;;40.28;;
63534;SDS011;55128;50.230;18.944;2023-10-09T19:53:55;76.90;;;38.13;;
63534;SDS011;55128;50.230;18.944;2023-10-09T19:58:55;61.57;;;32.37;;
63534;SDS011;55128;50.230;18.944;2023-10-09T20:03:57;66.32;;;35.28;;
63534;SDS011;55128;50.230;18.944;2023-10-09T20:08:59;45.13;;;28.60;;
63534;SDS011;55128;50.230;18.944;2023-10-09T20:14:00;53.90;;;28.83;;
63534;SDS011;55128;50.230;18.944;2023-10-09T20:19:00;51.50;;;28.10;;
63534;SDS011;55128;50.230;18.944;2023-10-09T20:24:01;48.42;;;28.00;;
63534;SDS011;55128;50.230;18.944;2023-10-09T20:29:02;51.05;;;28.45;;
63534;SDS011;55128;50.230;18.944;2023-10-09T20:34:03;52.63;;;29.40;;
63534;SDS011;55128;50.230;18.944;2023-10-09T20:39:09;54.75;;;30.05;;
63534;SDS011;55128;50.230;18.944;2023-10-09T20:44:10;43.40;;;26.00;;
63534;SDS011;55128;50.230;18.944;2023-10-09T20:49:10;40.00;;;23.20;;
63534;SDS011;55128;50.230;18.944;2023-10-09T20:54:14;38.53;;;24.40;;
63534;SDS011;55128;50.230;18.944;2023-10-09T20:59:15;40.63;;;23.05;;
63534;SDS011;55128;50.230;18.944;2023-10-09T21:04:16;45.60;;;29.67;;
63534;SDS011;55128;50.230;18.944;2023-10-09T21:09:16;47.70;;;28.80;;
63534;SDS011;55128;50.230;18.944;2023-10-09T21:14:16;46.13;;;27.50;;
63534;SDS011;55128;50.230;18.944;2023-10-09T21:19:17;50.63;;;30.75;;
63534;SDS011;55128;50.230;18.944;2023-10-09T21:24:17;75.18;;;46.35;;
63534;SDS011;55128;50.230;18.944;2023-10-09T21:29:17;57.97;;;38.07;;
63534;SDS011;55128;50.230;18.944;2023-10-09T21:34:18;53.85;;;38.45;;
63534;SDS011;55128;50.230;18.944;2023-10-09T21:39:19;40.10;;;24.17;;
63534;SDS011;55128;50.230;18.944;2023-10-09T21:44:19;46.20;;;27.58;;
63534;SDS011;55128;50.230;18.944;2023-10-09T21:49:20;54.08;;;29.13;;
63534;SDS011;55128;50.230;18.944;2023-10-09T21:54:20;60.03;;;35.53;;
63534;SDS011;55128;50.230;18.944;2023-10-09T21:59:20;43.22;;;27.58;;
63534;SDS011;55128;50.230;18.944;2023-10-09T22:04:21;37.80;;;25.35;;
63534;SDS011;55128;50.230;18.944;2023-10-09T22:09:21;46.07;;;23.67;;
63534;SDS011;55128;50.230;18.944;2023-10-09T22:14:21;43.40;;;25.45;;
63534;SDS011;55128;50.230;18.944;2023-10-09T22:19:22;45.05;;;24.08;;
63534;SDS011;55128;50.230;18.944;2023-10-09T22:24:25;40.15;;;24.27;;
63534;SDS011;55128;50.230;18.944;2023-10-09T22:29:26;35.47;;;22.73;;
63534;SDS011;55128;50.230;18.944;2023-10-09T22:34:27;38.55;;;25.15;;
63534;SDS011;55128;50.230;18.944;2023-10-09T22:39:30;42.83;;;22.90;;
63534;SDS011;55128;50.230;18.944;2023-10-09T22:44:33;40.55;;;22.60;;
63534;SDS011;55128;50.230;18.944;2023-10-09T22:49:34;40.90;;;20.83;;
63534;SDS011;55128;50.230;18.944;2023-10-09T22:54:35;43.17;;;23.27;;
63534;SDS011;55128;50.230;18.944;2023-10-09T22:59:35;41.33;;;21.00;;
63534;SDS011;55128;50.230;18.944;2023-10-09T23:04:44;40.22;;;22.88;;
63534;SDS011;55128;50.230;18.944;2023-10-09T23:09:49;40.00;;;21.38;;
63534;SDS011;55128;50.230;18.944;2023-10-09T23:14:50;39.72;;;20.88;;
63534;SDS011;55128;50.230;18.944;2023-10-09T23:19:52;36.97;;;21.88;;
63534;SDS011;55128;50.230;18.944;2023-10-09T23:24:56;44.53;;;21.70;;
63534;SDS011;55128;50.230;18.944;2023-10-09T23:30:17;43.42;;;22.55;;
63534;SDS011;55128;50.230;18.944;2023-10-09T23:35:24;44.72;;;23.27;;
63534;SDS011;55128;50.230;18.944;2023-10-09T23:40:44;47.55;;;23.65;;
63534;SDS011;55128;50.230;18.944;2023-10-09T23:45:45;48.75;;;21.95;;
63534;SDS011;55128;50.230;18.944;2023-10-09T23:50:45;62.75;;;24.05;;
63534;SDS011;55128;50.230;18.944;2023-10-09T23:55:47;53.85;;;22.35;;
